Time;durP1;ratioP1;P1;durP2;ratioP2;P2;SDS_P1;SDS_P2;PMS_P1;PMS_P2;Temp;Humidity;BMP_temperature;BMP_pressure;BME280_temperature;BME280_humidity;BME280_pressure;Samples;Min_cycle;Max_cycle;Signal;HPM_P1;HPM_P2
2023/03/11 00:02:09;;;;;;;6.87;2.03;;;;;;;;;;5049842;28;21092;-68
2023/03/11 00:04:36;;;;;;;9.77;2.00;;;;;;;;;;5050316;28;20279;-68
2023/03/11 00:07:05;;;;;;;9.30;1.87;;;;;;;;;;5049801;28;20397;-68
2023/03/11 00:09:31;;;;;;;14.37;2.30;;;;;;;;;;5049995;28;20283;-68
2023/03/11 00:11:57;;;;;;;8.70;2.53;;;;;;;;;;5049144;28;20360;-68
2023/03/11 00:14:22;;;;;;;6.30;1.90;;;;;;;;;;5048615;28;20048;-68
2023/03/11 00:16:48;;;;;;;11.90;2.23;;;;;;;;;;5049951;28;20132;-68
2023/03/11 00:19:14;;;;;;;6.87;2.03;;;;;;;;;;5049801;28;20511;-68
2023/03/11 00:21:40;;;;;;;12.53;2.47;;;;;;;;;;5048824;28;20044;-68
2023/03/11 00:24:07;;;;;;;12.80;2.30;;;;;;;;;;5049365;28;20479;-67
2023/03/11 00:26:33;;;;;;;12.00;3.50;;;;;;;;;;5049296;28;20056;-67
2023/03/11 00:28:59;;;;;;;16.20;2.50;;;;;;;;;;5049558;28;20816;-67
2023/03/11 00:31:27;;;;;;;16.43;3.87;;;;;;;;;;5049529;28;20382;-68
2023/03/11 00:33:56;;;;;;;13.90;2.57;;;;;;;;;;5049675;28;20045;-68
2023/03/11 00:36:27;;;;;;;9.90;2.37;;;;;;;;;;5048663;28;20649;-67
2023/03/11 00:38:53;;;;;;;9.57;1.80;;;;;;;;;;5049002;28;20904;-68
2023/03/11 00:41:20;;;;;;;7.43;2.33;;;;;;;;;;5049325;28;20284;-67
2023/03/11 00:43:46;;;;;;;7.40;2.37;;;;;;;;;;5048695;28;20275;-68
2023/03/11 00:46:12;;;;;;;9.97;2.47;;;;;;;;;;5049109;28;21008;-67
2023/03/11 00:48:38;;;;;;;13.10;2.90;;;;;;;;;;5049326;28;20286;-68
2023/03/11 00:51:06;;;;;;;11.73;2.30;;;;;;;;;;5048772;28;20048;-67
2023/03/11 00:53:32;;;;;;;10.30;2.20;;;;;;;;;;5028935;28;20287;-67
2023/03/11 00:55:58;;;;;;;9.67;2.30;;;;;;;;;;5032602;28;20288;-67
2023/03/11 00:58:27;;;;;;;11.10;1.93;;;;;;;;;;5049160;28;20924;-67
2023/03/11 01:00:53;;;;;;;10.07;2.10;;;;;;;;;;5049022;28;20759;-67
2023/03/11 01:03:19;;;;;;;7.87;1.67;;;;;;;;;;5047385;28;20292;-67
2023/03/11 01:05:45;;;;;;;8.57;2.80;;;;;;;;;;5046982;28;20295;-67
2023/03/11 01:08:11;;;;;;;7.77;1.57;;;;;;;;;;5048974;28;20045;-66
2023/03/11 01:10:37;;;;;;;11.60;1.93;;;;;;;;;;5048505;28;20345;-67
2023/03/11 01:13:03;;;;;;;7.27;1.30;;;;;;;;;;5049064;28;20288;-66
2023/03/11 01:15:31;;;;;;;7.27;1.40;;;;;;;;;;5048739;28;20299;-66
2023/03/11 01:17:57;;;;;;;9.53;1.47;;;;;;;;;;5048905;28;20310;-67
2023/03/11 01:20:23;;;;;;;12.17;1.80;;;;;;;;;;5048506;28;20619;-66
2023/03/11 01:22:49;;;;;;;12.27;1.70;;;;;;;;;;5048777;28;20155;-66
2023/03/11 01:25:17;;;;;;;6.63;1.87;;;;;;;;;;5046772;28;20312;-66
2023/03/11 01:27:43;;;;;;;7.50;2.00;;;;;;;;;;5046817;28;20319;-66
2023/03/11 01:30:12;;;;;;;6.50;1.17;;;;;;;;;;5048745;28;20405;-66
2023/03/11 01:32:38;;;;;;;7.37;1.80;;;;;;;;;;5048663;28;20371;-66
2023/03/11 01:35:04;;;;;;;7.80;1.93;;;;;;;;;;5047856;28;20875;-67
2023/03/11 01:37:30;;;;;;;11.73;1.47;;;;;;;;;;5048775;28;20115;-66
2023/03/11 01:39:56;;;;;;;15.17;3.63;;;;;;;;;;5048315;28;20341;-66
2023/03/11 01:42:22;;;;;;;9.87;1.60;;;;;;;;;;5048723;28;20623;-66
2023/03/11 01:44:48;;;;;;;6.73;1.63;;;;;;;;;;5048450;28;20295;-66
2023/03/11 01:47:14;;;;;;;10.83;4.00;;;;;;;;;;5048324;28;20362;-66
2023/03/11 01:49:40;;;;;;;9.77;1.83;;;;;;;;;;5051962;28;20327;-66
2023/03/11 01:52:07;;;;;;;9.57;1.63;;;;;;;;;;5052734;28;20041;-66
2023/03/11 01:54:36;;;;;;;7.47;1.60;;;;;;;;;;5051747;28;20284;-66
2023/03/11 01:57:04;;;;;;;6.73;1.90;;;;;;;;;;5048243;28;20304;-66
2023/03/11 01:59:32;;;;;;;10.77;1.70;;;;;;;;;;5041110;28;20861;-66
2023/03/11 02:01:58;;;;;;;10.30;2.10;;;;;;;;;;5052331;28;20600;-66
2023/03/11 02:04:25;;;;;;;7.30;1.90;;;;;;;;;;5052392;28;20837;-66
2023/03/11 02:06:51;;;;;;;9.37;1.80;;;;;;;;;;5051949;28;20045;-66
2023/03/11 02:09:17;;;;;;;6.90;1.87;;;;;;;;;;5050588;28;20294;-65
2023/03/11 02:11:43;;;;;;;11.43;3.10;;;;;;;;;;5052070;28;20283;-65
2023/03/11 02:14:09;;;;;;;12.03;1.67;;;;;;;;;;5052296;28;20041;-65
2023/03/11 02:16:36;;;;;;;8.23;1.50;;;;;;;;;;5052080;28;20283;-65
2023/03/11 02:19:07;;;;;;;9.37;1.50;;;;;;;;;;5050138;28;20623;-65
2023/03/11 02:21:34;;;;;;;8.13;1.50;;;;;;;;;;5050621;28;20293;-66
2023/03/11 02:24:00;;;;;;;8.13;1.93;;;;;;;;;;5052135;28;20984;-66
2023/03/11 02:26:31;;;;;;;10.17;2.00;;;;;;;;;;5051001;28;20310;-66
2023/03/11 02:28:58;;;;;;;7.23;1.60;;;;;;;;;;5050801;28;20045;-66
2023/03/11 02:31:25;;;;;;;11.53;1.60;;;;;;;;;;5049128;28;20358;-66
2023/03/11 02:33:52;;;;;;;7.03;1.83;;;;;;;;;;5051602;28;20327;-66
2023/03/11 02:36:31;;;;;;;10.70;1.80;;;;;;;;;;5051850;28;20287;-67
2023/03/11 02:38:57;;;;;;;9.53;2.20;;;;;;;;;;5052168;28;20283;-66
2023/03/11 02:41:23;;;;;;;10.57;2.20;;;;;;;;;;5051418;28;20767;-66
2023/03/11 02:43:49;;;;;;;12.57;2.00;;;;;;;;;;5051149;28;20303;-66
2023/03/11 02:46:15;;;;;;;11.00;2.17;;;;;;;;;;5051728;28;20314;-66
2023/03/11 02:48:42;;;;;;;8.27;2.00;;;;;;;;;;5050407;28;20315;-66
2023/03/11 02:51:08;;;;;;;10.23;2.60;;;;;;;;;;5050406;28;20299;-66
2023/03/11 02:53:41;;;;;;;10.27;1.97;;;;;;;;;;5051167;28;20280;-66
2023/03/11 02:56:07;;;;;;;8.05;1.60;;;;;;;;;;5051655;28;20295;-66
2023/03/11 02:58:33;;;;;;;8.40;2.13;;;;;;;;;;5050396;28;20041;-66
2023/03/11 03:00:59;;;;;;;14.40;2.03;;;;;;;;;;5049922;28;20287;-66
2023/03/11 03:03:25;;;;;;;6.80;1.60;;;;;;;;;;5051370;28;20284;-66
2023/03/11 03:05:51;;;;;;;5.30;1.60;;;;;;;;;;5050290;28;20041;-66
2023/03/11 03:08:17;;;;;;;7.63;1.60;;;;;;;;;;5051404;28;20800;-66
2023/03/11 03:10:43;;;;;;;5.57;1.43;;;;;;;;;;5050720;28;20041;-66
2023/03/11 03:13:09;;;;;;;5.77;1.50;;;;;;;;;;5050510;28;20279;-66
2023/03/11 03:15:35;;;;;;;7.13;1.47;;;;;;;;;;5048178;28;20037;-66
2023/03/11 03:18:01;;;;;;;7.77;1.40;;;;;;;;;;5050752;28;20331;-66
2023/03/11 03:20:27;;;;;;;7.07;2.40;;;;;;;;;;5050771;28;20292;-67
2023/03/11 03:22:54;;;;;;;8.40;1.53;;;;;;;;;;5050828;28;20290;-65
2023/03/11 03:25:20;;;;;;;5.50;1.60;;;;;;;;;;5050850;28;20037;-65
2023/03/11 03:27:46;;;;;;;7.13;1.70;;;;;;;;;;5050387;28;20311;-65
2023/03/11 03:30:12;;;;;;;4.87;1.57;;;;;;;;;;5050206;28;20805;-65
2023/03/11 03:32:38;;;;;;;6.07;2.00;;;;;;;;;;5049035;28;20288;-66
2023/03/11 03:35:04;;;;;;;7.57;1.50;;;;;;;;;;5049335;28;20677;-65
2023/03/11 03:37:32;;;;;;;6.40;1.50;;;;;;;;;;5050636;28;20546;-65
2023/03/11 03:39:58;;;;;;;12.63;2.03;;;;;;;;;;5050851;28;20378;-65
2023/03/11 03:42:24;;;;;;;6.53;1.60;;;;;;;;;;5050007;28;20294;-65
2023/03/11 03:44:51;;;;;;;6.83;1.43;;;;;;;;;;5050416;28;20886;-65
2023/03/11 03:47:18;;;;;;;7.23;1.57;;;;;;;;;;5050394;28;20311;-65
2023/03/11 03:49:44;;;;;;;10.20;2.60;;;;;;;;;;5050521;28;20654;-65
2023/03/11 03:52:10;;;;;;;7.73;1.40;;;;;;;;;;5050437;28;20280;-65
2023/03/11 03:54:36;;;;;;;7.87;2.00;;;;;;;;;;5049846;28;20295;-65
2023/03/11 03:57:03;;;;;;;7.10;1.60;;;;;;;;;;5049357;28;20296;-65
2023/03/11 03:59:29;;;;;;;6.37;1.20;;;;;;;;;;5050486;28;20298;-63
2023/03/11 04:01:56;;;;;;;11.00;1.80;;;;;;;;;;5049732;28;20688;-66
2023/03/11 04:04:22;;;;;;;8.93;2.23;;;;;;;;;;5050062;28;20338;-64
2023/03/11 04:06:48;;;;;;;6.40;1.20;;;;;;;;;;5049475;28;20307;-64
2023/03/11 04:09:14;;;;;;;5.90;1.77;;;;;;;;;;5049619;28;20392;-64
2023/03/11 04:11:40;;;;;;;4.50;1.60;;;;;;;;;;5049189;28;20284;-65
2023/03/11 04:14:07;;;;;;;8.30;1.37;;;;;;;;;;5049807;28;20732;-64
2023/03/11 04:16:33;;;;;;;6.37;1.57;;;;;;;;;;5049934;28;20338;-64
2023/03/11 04:18:59;;;;;;;7.00;2.10;;;;;;;;;;5048013;28;20291;-64
2023/03/11 04:21:25;;;;;;;4.30;1.77;;;;;;;;;;5048928;28;20295;-64
2023/03/11 04:23:51;;;;;;;5.37;1.77;;;;;;;;;;5049680;28;20286;-64
2023/03/11 04:26:17;;;;;;;7.90;1.47;;;;;;;;;;5049165;28;20315;-64
2023/03/11 04:28:43;;;;;;;7.17;1.50;;;;;;;;;;5050143;28;20288;-64
2023/03/11 04:31:10;;;;;;;3.97;1.20;;;;;;;;;;5049472;28;20296;-65
2023/03/11 04:33:36;;;;;;;9.03;1.50;;;;;;;;;;5049932;28;20647;-67
2023/03/11 04:36:06;;;;;;;5.43;1.53;;;;;;;;;;5049701;28;20363;-65
2023/03/11 04:38:32;;;;;;;7.83;1.77;;;;;;;;;;5049592;28;20283;-66
2023/03/11 04:41:01;;;;;;;4.87;1.67;;;;;;;;;;5040501;28;20287;-66
2023/03/11 04:43:28;;;;;;;7.33;1.50;;;;;;;;;;5047787;28;20711;-65
2023/03/11 04:45:54;;;;;;;8.43;1.63;;;;;;;;;;5040175;28;20291;-65
2023/03/11 04:48:20;;;;;;;3.93;1.20;;;;;;;;;;5041143;28;20797;-65
2023/03/11 04:50:46;;;;;;;7.77;1.60;;;;;;;;;;5041397;28;20701;-64
2023/03/11 04:53:12;;;;;;;9.73;1.73;;;;;;;;;;5043039;28;20345;-65
2023/03/11 04:55:38;;;;;;;5.63;1.23;;;;;;;;;;5040434;28;20283;-64
2023/03/11 04:58:05;;;;;;;4.80;1.37;;;;;;;;;;5041316;28;20295;-65
2023/03/11 05:00:31;;;;;;;4.03;1.43;;;;;;;;;;5041353;28;20345;-64
2023/03/11 05:02:57;;;;;;;4.03;1.20;;;;;;;;;;5043189;28;21548;-64
2023/03/11 05:05:23;;;;;;;3.37;1.00;;;;;;;;;;5044015;28;20298;-64
2023/03/11 05:07:49;;;;;;;5.40;1.20;;;;;;;;;;5046670;28;20358;-64
2023/03/11 05:10:21;;;;;;;4.70;1.77;;;;;;;;;;5047010;28;20311;-64
2023/03/11 05:12:50;;;;;;;5.87;1.20;;;;;;;;;;5048569;28;20391;-64
2023/03/11 05:15:16;;;;;;;8.53;1.43;;;;;;;;;;5049343;28;20358;-64
2023/03/11 05:17:43;;;;;;;4.57;1.10;;;;;;;;;;5045164;28;20283;-65
2023/03/11 05:20:09;;;;;;;4.20;1.07;;;;;;;;;;5048993;28;20287;-65
2023/03/11 05:22:35;;;;;;;5.07;1.30;;;;;;;;;;5048173;28;20287;-64
2023/03/11 05:25:02;;;;;;;4.97;1.30;;;;;;;;;;5048798;28;20290;-64
2023/03/11 05:27:28;;;;;;;9.20;1.10;;;;;;;;;;5048284;28;20311;-64
2023/03/11 05:29:54;;;;;;;4.93;1.37;;;;;;;;;;5047669;28;20286;-66
2023/03/11 05:32:20;;;;;;;3.23;1.10;;;;;;;;;;5046923;28;20276;-64
2023/03/11 05:34:46;;;;;;;5.97;1.10;;;;;;;;;;5048604;28;20279;-64
2023/03/11 05:37:12;;;;;;;5.10;1.00;;;;;;;;;;5048638;28;20286;-64
2023/03/11 05:39:39;;;;;;;3.80;1.20;;;;;;;;;;5047553;28;20314;-64
2023/03/11 05:42:05;;;;;;;4.67;1.00;;;;;;;;;;5048118;28;20669;-64
2023/03/11 05:44:32;;;;;;;3.83;1.17;;;;;;;;;;5048425;28;20280;-64
2023/03/11 05:46:58;;;;;;;5.47;1.57;;;;;;;;;;5048400;28;21264;-65
2023/03/11 05:49:24;;;;;;;4.27;1.00;;;;;;;;;;5048164;28;20345;-64
2023/03/11 05:51:50;;;;;;;8.10;1.10;;;;;;;;;;5048333;28;20287;-64
2023/03/11 05:54:16;;;;;;;6.27;1.20;;;;;;;;;;5048172;28;20041;-64
2023/03/11 05:56:44;;;;;;;3.10;1.30;;;;;;;;;;5046956;28;20283;-64
2023/03/11 05:59:10;;;;;;;5.43;1.60;;;;;;;;;;5048555;28;20778;-65
2023/03/11 06:01:36;;;;;;;6.83;1.07;;;;;;;;;;5048579;28;20340;-64
2023/03/11 06:04:02;;;;;;;7.43;1.50;;;;;;;;;;5047029;28;20666;-64
2023/03/11 06:06:29;;;;;;;10.80;1.63;;;;;;;;;;5048587;28;20335;-65
2023/03/11 06:08:55;;;;;;;5.80;1.60;;;;;;;;;;5048724;28;20279;-64
2023/03/11 06:11:24;;;;;;;6.50;1.70;;;;;;;;;;5045112;28;20738;-64
2023/03/11 06:13:53;;;;;;;3.30;1.17;;;;;;;;;;5043693;28;20315;-63
2023/03/11 06:16:19;;;;;;;5.27;1.47;;;;;;;;;;5045049;28;20298;-63
2023/03/11 06:18:45;;;;;;;4.70;1.20;;;;;;;;;;5047446;28;20319;-63
2023/03/11 06:21:21;;;;;;;9.77;1.67;;;;;;;;;;5048027;28;20290;-63
2023/03/11 06:23:47;;;;;;;3.43;1.40;;;;;;;;;;5046064;28;20284;-63
2023/03/11 06:26:15;;;;;;;7.87;2.20;;;;;;;;;;5038306;28;20292;-63
2023/03/11 06:28:42;;;;;;;4.50;1.40;;;;;;;;;;5039367;28;20334;-63
2023/03/11 06:31:13;;;;;;;5.57;1.60;;;;;;;;;;5041383;28;20288;-63
2023/03/11 06:33:40;;;;;;;8.67;2.80;;;;;;;;;;5035363;28;20283;-63
2023/03/11 06:36:06;;;;;;;5.37;1.60;;;;;;;;;;5049047;28;20864;-63
2023/03/11 06:38:33;;;;;;;2.53;1.10;;;;;;;;;;5051358;28;20653;-63
2023/03/11 06:41:00;;;;;;;4.13;1.33;;;;;;;;;;5051669;28;21026;-63
2023/03/11 06:43:26;;;;;;;5.47;2.00;;;;;;;;;;5048944;28;20320;-63
2023/03/11 06:45:52;;;;;;;5.47;1.23;;;;;;;;;;5050539;28;20875;-63
2023/03/11 06:48:18;;;;;;;8.13;1.53;;;;;;;;;;5051154;28;20303;-63
2023/03/11 06:50:44;;;;;;;6.80;1.60;;;;;;;;;;5049255;28;20389;-63
2023/03/11 06:53:10;;;;;;;9.23;1.20;;;;;;;;;;5048450;28;20297;-63
2023/03/11 06:55:36;;;;;;;8.27;1.43;;;;;;;;;;5049482;28;20295;-63
2023/03/11 06:58:02;;;;;;;9.93;1.70;;;;;;;;;;5050941;28;20045;-63
2023/03/11 07:00:29;;;;;;;4.93;1.50;;;;;;;;;;5051069;28;20087;-63
2023/03/11 07:02:56;;;;;;;5.07;1.17;;;;;;;;;;5050170;28;20311;-63
2023/03/11 07:05:22;;;;;;;4.00;1.23;;;;;;;;;;5051503;28;20812;-63
2023/03/11 07:07:48;;;;;;;5.50;1.40;;;;;;;;;;5046221;28;20315;-63
2023/03/11 07:10:14;;;;;;;8.37;2.90;;;;;;;;;;5050890;28;20793;-63
2023/03/11 07:12:40;;;;;;;3.63;1.20;;;;;;;;;;5051104;28;20838;-63
2023/03/11 07:15:06;;;;;;;4.00;1.30;;;;;;;;;;5050621;28;20377;-62
2023/03/11 07:17:33;;;;;;;7.27;1.37;;;;;;;;;;5047611;28;20359;-62
2023/03/11 07:19:59;;;;;;;4.30;1.20;;;;;;;;;;5050809;28;20294;-63
2023/03/11 07:22:25;;;;;;;6.70;1.50;;;;;;;;;;5049993;28;20696;-63
2023/03/11 07:24:51;;;;;;;5.87;1.13;;;;;;;;;;5049448;28;20322;-63
2023/03/11 07:27:17;;;;;;;6.90;1.23;;;;;;;;;;5064513;28;20299;-63
2023/03/11 07:29:43;;;;;;;11.10;1.50;;;;;;;;;;5054727;28;20883;-63
2023/03/11 07:32:12;;;;;;;6.33;1.30;;;;;;;;;;5049559;28;20292;-63
2023/03/11 07:34:38;;;;;;;5.50;1.17;;;;;;;;;;5049790;28;20302;-63
2023/03/11 07:37:04;;;;;;;5.50;1.57;;;;;;;;;;5047386;28;20041;-63
2023/03/11 07:39:30;;;;;;;12.13;1.80;;;;;;;;;;5050263;28;20832;-63
2023/03/11 07:41:56;;;;;;;8.67;2.10;;;;;;;;;;5049471;28;20299;-63
2023/03/11 07:44:22;;;;;;;6.13;1.30;;;;;;;;;;5049889;28;20851;-63
2023/03/11 07:46:48;;;;;;;6.60;1.50;;;;;;;;;;5049931;28;20057;-64
2023/03/11 07:49:14;;;;;;;5.53;2.10;;;;;;;;;;5050653;28;20384;-62
2023/03/11 07:51:42;;;;;;;5.70;1.70;;;;;;;;;;5049555;28;20045;-62
2023/03/11 07:54:09;;;;;;;8.00;2.33;;;;;;;;;;5049903;28;21035;-62
2023/03/11 07:56:35;;;;;;;5.20;2.23;;;;;;;;;;5049987;28;20315;-62
2023/03/11 07:59:02;;;;;;;12.17;2.70;;;;;;;;;;5050069;28;20291;-62
2023/03/11 08:01:34;;;;;;;6.80;2.00;;;;;;;;;;5049236;28;20323;-62
2023/03/11 08:04:01;;;;;;;9.27;4.03;;;;;;;;;;5049974;28;20291;-62
2023/03/11 08:06:30;;;;;;;9.10;3.50;;;;;;;;;;5049768;28;20344;-62
2023/03/11 08:08:56;;;;;;;7.63;3.13;;;;;;;;;;5040678;28;20383;-63
2023/03/11 08:11:23;;;;;;;11.70;4.33;;;;;;;;;;5036273;28;20698;-63
2023/03/11 08:13:49;;;;;;;10.63;5.60;;;;;;;;;;5029920;28;20677;-63
2023/03/11 08:16:16;;;;;;;8.83;2.90;;;;;;;;;;5035573;28;20824;-62
2023/03/11 08:18:42;;;;;;;5.73;1.53;;;;;;;;;;5036789;28;20299;-63
2023/03/11 08:21:09;;;;;;;4.97;1.60;;;;;;;;;;5034077;28;20662;-63
2023/03/11 08:23:36;;;;;;;6.70;1.97;;;;;;;;;;5035650;28;20693;-63
2023/03/11 08:26:06;;;;;;;12.43;1.60;;;;;;;;;;5034621;28;20293;-63
2023/03/11 08:28:32;;;;;;;2.87;1.10;;;;;;;;;;5039950;28;20313;-61
2023/03/11 08:30:58;;;;;;;8.50;1.67;;;;;;;;;;5034787;28;20401;-61
2023/03/11 08:33:24;;;;;;;4.80;1.43;;;;;;;;;;5037394;28;20288;-62
2023/03/11 08:35:50;;;;;;;6.63;2.10;;;;;;;;;;5035430;28;20430;-63
2023/03/11 08:38:16;;;;;;;7.47;1.60;;;;;;;;;;5035801;28;20370;-62
2023/03/11 08:40:42;;;;;;;13.23;2.73;;;;;;;;;;5037193;28;20041;-63
2023/03/11 08:43:11;;;;;;;9.10;1.30;;;;;;;;;;5033668;28;20048;-63
2023/03/11 08:45:39;;;;;;;3.30;1.47;;;;;;;;;;5049011;28;20521;-63
2023/03/11 08:48:05;;;;;;;6.47;1.60;;;;;;;;;;5049424;28;20311;-63
2023/03/11 08:50:31;;;;;;;10.33;2.23;;;;;;;;;;5049242;28;20311;-63
2023/03/11 08:52:59;;;;;;;5.90;1.70;;;;;;;;;;5048833;28;20384;-63
2023/03/11 08:55:27;;;;;;;4.43;2.13;;;;;;;;;;5049173;28;20123;-63
2023/03/11 08:57:53;;;;;;;6.50;1.50;;;;;;;;;;5048437;28;20319;-63
2023/03/11 09:00:19;;;;;;;3.90;1.60;;;;;;;;;;5047736;28;20291;-63
2023/03/11 09:02:46;;;;;;;7.37;1.60;;;;;;;;;;5048128;28;20279;-63
2023/03/11 09:05:12;;;;;;;6.27;1.53;;;;;;;;;;5048273;28;20291;-64
2023/03/11 09:07:39;;;;;;;10.30;1.63;;;;;;;;;;5047696;28;20329;-63
2023/03/11 09:10:05;;;;;;;6.23;1.87;;;;;;;;;;5036546;28;20287;-64
2023/03/11 09:12:31;;;;;;;8.73;2.00;;;;;;;;;;5038495;28;20295;-63
2023/03/11 09:14:57;;;;;;;11.63;1.73;;;;;;;;;;5036185;28;20646;-63
2023/03/11 09:17:23;;;;;;;9.17;1.40;;;;;;;;;;5037969;28;20329;-63
2023/03/11 09:19:49;;;;;;;6.00;1.27;;;;;;;;;;5035868;28;20291;-63
2023/03/11 09:22:15;;;;;;;4.10;1.43;;;;;;;;;;5036943;28;20040;-63
2023/03/11 09:24:41;;;;;;;4.57;1.20;;;;;;;;;;5044834;28;20466;-63
2023/03/11 09:27:07;;;;;;;5.10;1.87;;;;;;;;;;5036271;28;20308;-63
2023/03/11 09:29:34;;;;;;;9.23;1.50;;;;;;;;;;5028745;28;20590;-63
2023/03/11 09:32:00;;;;;;;4.97;1.47;;;;;;;;;;5042343;28;20292;-63
2023/03/11 09:34:26;;;;;;;5.87;1.50;;;;;;;;;;5043467;28;20307;-63
2023/03/11 09:36:51;;;;;;;5.27;1.63;;;;;;;;;;5042515;28;20041;-63
2023/03/11 09:39:17;;;;;;;6.40;1.30;;;;;;;;;;5038923;28;20295;-63
2023/03/11 09:41:57;;;;;;;5.30;1.70;;;;;;;;;;5040526;28;20434;-62
2023/03/11 09:44:26;;;;;;;9.33;1.90;;;;;;;;;;5039684;28;20048;-63
2023/03/11 09:47:10;;;;;;;6.17;1.40;;;;;;;;;;5036169;28;20677;-62
2023/03/11 09:49:36;;;;;;;6.63;1.90;;;;;;;;;;5041732;28;20087;-62
2023/03/11 09:52:08;;;;;;;8.17;1.70;;;;;;;;;;5038838;28;20283;-62
2023/03/11 09:54:37;;;;;;;12.40;2.03;;;;;;;;;;5045835;28;20112;-62
2023/03/11 09:57:03;;;;;;;6.60;1.97;;;;;;;;;;5040903;28;20284;-62
2023/03/11 09:59:30;;;;;;;8.83;1.90;;;;;;;;;;5045767;28;20132;-62
2023/03/11 10:01:57;;;;;;;6.13;1.83;;;;;;;;;;5038551;28;20045;-63
2023/03/11 10:04:25;;;;;;;5.77;1.80;;;;;;;;;;5036869;28;20033;-62
2023/03/11 10:06:52;;;;;;;6.50;2.20;;;;;;;;;;5036470;28;20045;-63
2023/03/11 10:09:35;;;;;;;3.67;1.77;;;;;;;;;;5037437;28;20518;-63
2023/03/11 10:12:15;;;;;;;4.97;1.67;;;;;;;;;;5040333;28;20041;-63
2023/03/11 10:14:50;;;;;;;8.23;1.80;;;;;;;;;;5042784;28;20124;-63
2023/03/11 10:17:35;;;;;;;5.90;1.33;;;;;;;;;;5039645;28;20133;-64
2023/03/11 10:20:03;;;;;;;7.07;1.37;;;;;;;;;;5042280;28;20052;-64
2023/03/11 10:22:32;;;;;;;3.13;1.40;;;;;;;;;;5041381;28;20120;-65
2023/03/11 10:25:09;;;;;;;9.10;1.80;;;;;;;;;;5039747;28;20051;-65
2023/03/11 10:27:55;;;;;;;4.00;1.43;;;;;;;;;;5039124;28;20057;-66
2023/03/11 10:30:36;;;;;;;5.90;1.27;;;;;;;;;;5042775;28;20056;-66
2023/03/11 10:33:14;;;;;;;4.67;1.30;;;;;;;;;;5032240;28;20408;-67
2023/03/11 10:35:43;;;;;;;6.00;1.20;;;;;;;;;;5031678;28;20060;-66
2023/03/11 10:38:15;;;;;;;6.27;1.60;;;;;;;;;;5031994;28;20100;-68
2023/03/11 10:40:42;;;;;;;3.50;1.53;;;;;;;;;;5031294;28;20099;-68
2023/03/11 10:43:14;;;;;;;10.83;1.43;;;;;;;;;;5032233;28;20042;-67
2023/03/11 10:45:43;;;;;;;8.33;1.80;;;;;;;;;;5035475;28;20045;-68
2023/03/11 10:48:14;;;;;;;7.83;1.50;;;;;;;;;;5040575;28;20041;-69
2023/03/11 10:50:45;;;;;;;5.47;1.93;;;;;;;;;;5037928;28;20041;-68
2023/03/11 10:53:15;;;;;;;9.70;1.57;;;;;;;;;;5036128;28;20037;-68
2023/03/11 10:55:46;;;;;;;13.43;3.27;;;;;;;;;;5041578;28;20049;-69
2023/03/11 10:58:14;;;;;;;5.77;1.33;;;;;;;;;;5041065;28;20053;-69
2023/03/11 11:00:40;;;;;;;5.57;2.17;;;;;;;;;;5038978;28;20069;-67
2023/03/11 11:03:14;;;;;;;6.13;1.10;;;;;;;;;;5038363;28;20037;-68
2023/03/11 11:05:40;;;;;;;5.73;1.63;;;;;;;;;;5040469;28;20127;-67
2023/03/11 11:08:13;;;;;;;7.37;1.10;;;;;;;;;;5044960;28;20584;-67
2023/03/11 11:10:49;;;;;;;5.47;1.20;;;;;;;;;;5041189;28;20053;-67
2023/03/11 11:13:36;;;;;;;7.17;1.10;;;;;;;;;;5038190;28;20040;-66
2023/03/11 11:16:28;;;;;;;7.70;1.10;;;;;;;;;;5039253;28;20199;-66
2023/03/11 11:19:26;;;;;;;8.53;1.90;;;;;;;;;;5039661;28;20048;-66
2023/03/11 11:21:52;;;;;;;9.13;1.83;;;;;;;;;;5035897;28;20132;-65
2023/03/11 11:24:22;;;;;;;9.13;1.60;;;;;;;;;;5045504;28;20041;-65
2023/03/11 11:27:04;;;;;;;8.70;1.60;;;;;;;;;;5045660;28;20084;-65
2023/03/11 11:29:30;;;;;;;8.73;1.27;;;;;;;;;;5044820;28;20132;-66
2023/03/11 11:32:15;;;;;;;7.80;1.67;;;;;;;;;;5032671;28;20111;-65
2023/03/11 11:34:41;;;;;;;7.57;1.10;;;;;;;;;;5032886;28;20137;-65
2023/03/11 11:37:12;;;;;;;3.43;0.90;;;;;;;;;;5043533;28;20044;-66
2023/03/11 11:39:50;;;;;;;5.50;1.03;;;;;;;;;;5030181;28;20041;-65
2023/03/11 11:42:16;;;;;;;7.20;0.93;;;;;;;;;;5037022;28;20047;-65
2023/03/11 11:44:43;;;;;;;3.17;0.80;;;;;;;;;;5050419;28;20056;-65
2023/03/11 11:47:17;;;;;;;4.67;1.10;;;;;;;;;;5050141;28;20041;-66
2023/03/11 11:49:49;;;;;;;2.13;0.70;;;;;;;;;;5050100;28;20503;-66
2023/03/11 11:52:17;;;;;;;3.70;0.83;;;;;;;;;;5050284;28;20037;-66
2023/03/11 11:54:44;;;;;;;2.40;0.70;;;;;;;;;;5048492;28;20055;-67
2023/03/11 11:57:11;;;;;;;3.93;0.60;;;;;;;;;;5042174;28;20064;-67
2023/03/11 11:59:37;;;;;;;13.57;2.53;;;;;;;;;;5065387;28;20458;-67
2023/03/11 12:02:18;;;;;;;3.90;1.00;;;;;;;;;;5049140;28;20045;-68
2023/03/11 12:04:53;;;;;;;9.10;0.97;;;;;;;;;;5049157;28;20056;-68
2023/03/11 12:07:31;;;;;;;6.90;1.20;;;;;;;;;;5049351;28;20384;-68
2023/03/11 12:10:11;;;;;;;4.07;1.10;;;;;;;;;;5048859;28;20060;-68
2023/03/11 12:12:44;;;;;;;5.73;1.30;;;;;;;;;;5049505;28;20091;-68
2023/03/11 12:15:23;;;;;;;4.10;1.00;;;;;;;;;;5049538;28;20044;-68
2023/03/11 12:17:51;;;;;;;4.90;0.60;;;;;;;;;;5043225;28;20045;-67
2023/03/11 12:20:17;;;;;;;5.30;0.70;;;;;;;;;;5042701;28;20033;-67
2023/03/11 12:22:46;;;;;;;5.80;0.73;;;;;;;;;;5037562;28;20041;-67
2023/03/11 12:25:13;;;;;;;4.27;0.87;;;;;;;;;;5052243;28;20045;-66
2023/03/11 12:27:39;;;;;;;4.30;0.90;;;;;;;;;;5036451;28;20057;-66
2023/03/11 12:30:11;;;;;;;3.07;0.80;;;;;;;;;;5047625;28;20067;-66
2023/03/11 12:32:39;;;;;;;2.70;0.83;;;;;;;;;;5048546;28;20052;-66
2023/03/11 12:35:23;;;;;;;3.83;0.83;;;;;;;;;;5048882;28;20150;-66
2023/03/11 12:38:16;;;;;;;6.63;1.57;;;;;;;;;;5041390;28;20567;-66
2023/03/11 12:40:42;;;;;;;5.17;1.07;;;;;;;;;;5038692;28;20086;-66
2023/03/11 12:43:23;;;;;;;2.47;0.50;;;;;;;;;;5038395;28;20091;-66
2023/03/11 12:45:50;;;;;;;4.00;0.97;;;;;;;;;;5038276;28;20056;-66
2023/03/11 12:48:35;;;;;;;2.77;0.83;;;;;;;;;;5041413;28;20518;-66
2023/03/11 12:51:01;;;;;;;4.00;0.90;;;;;;;;;;5043394;28;20045;-66
2023/03/11 12:53:42;;;;;;;5.23;1.10;;;;;;;;;;5037594;28;20052;-65
2023/03/11 12:56:17;;;;;;;6.27;0.60;;;;;;;;;;5030782;28;20049;-65
2023/03/11 12:58:43;;;;;;;4.80;0.57;;;;;;;;;;5030234;28;20056;-65
2023/03/11 13:01:45;;;;;;;4.63;1.40;;;;;;;;;;5030037;28;20053;-65
2023/03/11 13:04:30;;;;;;;2.03;0.60;;;;;;;;;;5014645;28;20056;-63
2023/03/11 13:07:03;;;;;;;3.83;1.20;;;;;;;;;;5032519;28;20427;-64
2023/03/11 13:09:29;;;;;;;5.15;0.63;;;;;;;;;;5057722;28;20049;-63
2023/03/11 13:11:55;;;;;;;10.63;6.00;;;;;;;;;;5028846;28;20088;-63
2023/03/11 13:14:27;;;;;;;10.27;4.90;;;;;;;;;;5027852;28;20048;-63
2023/03/11 13:16:53;;;;;;;3.77;0.70;;;;;;;;;;5028565;28;20107;-62
2023/03/11 13:19:25;;;;;;;5.60;1.37;;;;;;;;;;5027181;28;20045;-62
2023/03/11 13:21:52;;;;;;;4.40;1.10;;;;;;;;;;5028195;28;20049;-62
2023/03/11 13:24:20;;;;;;;3.80;1.37;;;;;;;;;;5028347;28;20466;-62
2023/03/11 13:26:52;;;;;;;5.67;1.77;;;;;;;;;;5027547;28;20057;-62
2023/03/11 13:29:36;;;;;;;8.30;1.10;;;;;;;;;;5027107;28;20076;-62
2023/03/11 13:32:20;;;;;;;3.57;0.63;;;;;;;;;;5027851;28;20045;-62
2023/03/11 13:34:52;;;;;;;3.70;0.70;;;;;;;;;;5027861;28;20056;-62
2023/03/11 13:37:29;;;;;;;4.03;1.00;;;;;;;;;;5027711;28;20084;-62
2023/03/11 13:40:13;;;;;;;3.37;0.90;;;;;;;;;;5027432;28;20077;-62
2023/03/11 13:42:50;;;;;;;4.37;0.87;;;;;;;;;;5035328;28;20049;-62
2023/03/11 13:45:21;;;;;;;1.73;0.60;;;;;;;;;;5050744;28;20059;-63
2023/03/11 13:47:48;;;;;;;4.30;0.83;;;;;;;;;;5050901;28;20045;-62
2023/03/11 13:50:20;;;;;;;3.40;0.80;;;;;;;;;;5051356;28;20668;-62
2023/03/11 13:52:47;;;;;;;3.97;0.90;;;;;;;;;;5051498;28;20554;-62
2023/03/11 13:55:34;;;;;;;2.37;0.70;;;;;;;;;;5050853;28;20041;-62
2023/03/11 13:58:00;;;;;;;4.30;0.97;;;;;;;;;;5051429;28;20620;-62
2023/03/11 14:00:30;;;;;;;3.40;0.63;;;;;;;;;;5050960;28;20049;-61
2023/03/11 14:02:58;;;;;;;3.37;1.23;;;;;;;;;;5051126;28;20045;-62
2023/03/11 14:05:30;;;;;;;2.77;0.40;;;;;;;;;;5049873;28;20044;-62
2023/03/11 14:08:11;;;;;;;2.67;0.50;;;;;;;;;;5050453;28;20053;-62
2023/03/11 14:10:37;;;;;;;4.60;0.60;;;;;;;;;;5050408;28;20048;-62
2023/03/11 14:13:13;;;;;;;2.70;0.47;;;;;;;;;;5049601;28;20049;-62
2023/03/11 14:15:46;;;;;;;1.20;0.43;;;;;;;;;;5043892;28;20041;-62
2023/03/11 14:18:24;;;;;;;3.60;0.60;;;;;;;;;;5047518;28;20440;-62
2023/03/11 14:20:50;;;;;;;3.50;0.50;;;;;;;;;;5046620;28;20121;-62
2023/03/11 14:23:18;;;;;;;1.77;0.53;;;;;;;;;;5044594;28;20079;-62
2023/03/11 14:25:44;;;;;;;1.33;0.40;;;;;;;;;;5042751;28;20145;-62
2023/03/11 14:28:19;;;;;;;4.77;0.70;;;;;;;;;;5046707;28;20197;-62
2023/03/11 14:30:58;;;;;;;5.20;0.63;;;;;;;;;;5046464;28;20048;-62
2023/03/11 14:33:24;;;;;;;8.27;1.00;;;;;;;;;;5041466;28;20049;-62
2023/03/11 14:35:52;;;;;;;3.27;0.67;;;;;;;;;;5038311;28;20167;-62
2023/03/11 14:38:22;;;;;;;4.87;1.80;;;;;;;;;;5038596;28;20046;-62
2023/03/11 14:40:56;;;;;;;8.40;0.73;;;;;;;;;;5039392;28;20049;-61
2023/03/11 14:43:22;;;;;;;4.87;0.80;;;;;;;;;;5035163;28;20479;-62
2023/03/11 14:45:49;;;;;;;5.07;0.90;;;;;;;;;;5030047;28;20053;-61
2023/03/11 14:48:18;;;;;;;3.27;1.10;;;;;;;;;;5030542;28;20053;-62
2023/03/11 14:50:48;;;;;;;2.37;0.70;;;;;;;;;;5029952;28;20145;-62